Time;durP1;ratioP1;P1;durP2;ratioP2;P2;SDS_P1;SDS_P2;PMS_P1;PMS_P2;Temp;Humidity;BMP_temperature;BMP_pressure;BME280_temperature;BME280_humidity;BME280_pressure;Samples;Min_cycle;Max_cycle;Signal;HPM_P1;HPM_P2
2022/08/27 00:00:29;;;;;;;37.08;16.95;;;;;;;23.78;36.65;100413.63;5010912;28;20030;-51
2022/08/27 00:02:55;;;;;;;33.35;17.80;;;;;;;23.83;36.50;100404.84;5010817;28;20119;-53
2022/08/27 00:05:20;;;;;;;39.08;18.27;;;;;;;23.86;36.62;100408.03;5013680;28;20486;-54
2022/08/27 00:07:46;;;;;;;41.85;17.77;;;;;;;23.88;36.46;100416.91;5033721;28;20041;-49
2022/08/27 00:10:18;;;;;;;36.33;17.27;;;;;;;23.93;36.34;100417.16;5033690;28;20041;-51
2022/08/27 00:12:45;;;;;;;36.10;17.88;;;;;;;23.87;36.48;100415.22;5021203;28;20053;-51
2022/08/27 00:15:11;;;;;;;43.65;18.02;;;;;;;23.87;36.30;100412.47;5015418;28;20044;-50
2022/08/27 00:17:37;;;;;;;37.65;17.73;;;;;;;23.83;36.61;100410.31;5016731;28;20032;-61
2022/08/27 00:20:05;;;;;;;30.23;16.52;;;;;;;23.60;36.55;100379.41;5033909;28;20055;-49
2022/08/27 00:22:31;;;;;;;34.85;17.58;;;;;;;23.72;36.91;100401.59;5033679;28;20521;-50
2022/08/27 00:24:56;;;;;;;33.13;16.83;;;;;;;23.66;37.02;100402.38;5021351;28;20125;-49
2022/08/27 00:27:22;;;;;;;35.47;17.10;;;;;;;23.64;36.87;100407.22;5032425;28;20120;-51
2022/08/27 00:29:48;;;;;;;33.08;17.02;;;;;;;23.62;36.98;100414.75;5033216;28;20040;-52
2022/08/27 00:32:13;;;;;;;32.28;16.95;;;;;;;23.60;37.04;100404.00;5016710;28;20033;-51
2022/08/27 00:34:39;;;;;;;32.47;16.75;;;;;;;23.56;38.50;100408.19;5014089;28;20116;-51
2022/08/27 00:37:06;;;;;;;32.92;17.20;;;;;;;23.50;37.61;100411.69;5014856;28;20034;-52
2022/08/27 00:39:33;;;;;;;32.53;17.13;;;;;;;23.49;37.05;100410.84;5013262;28;20034;-55
2022/08/27 00:41:59;;;;;;;35.65;17.13;;;;;;;23.41;37.67;100407.41;5013825;28;20038;-51
2022/08/27 00:44:26;;;;;;;44.03;17.23;;;;;;;23.42;37.69;100411.84;5023391;28;20022;-51
2022/08/27 00:47:04;;;;;;;28.65;16.63;;;;;;;23.37;37.51;100410.50;5033159;28;20040;-52
2022/08/27 00:49:39;;;;;;;39.95;17.33;;;;;;;23.32;37.62;100417.63;5032751;28;20041;-51
2022/08/27 00:52:12;;;;;;;33.13;17.50;;;;;;;23.26;37.55;100411.03;5017965;28;20117;-53
2022/08/27 00:54:38;;;;;;;34.70;17.55;;;;;;;23.12;38.97;100418.19;5013719;28;20037;-51
2022/08/27 00:57:04;;;;;;;34.90;17.92;;;;;;;22.99;38.47;100393.47;5013255;28;20485;-49
2022/08/27 00:59:31;;;;;;;34.40;17.17;;;;;;;23.13;38.41;100413.56;5030728;28;20041;-51
2022/08/27 01:05:01;;;;;;;31.92;17.45;;;;;;;23.17;38.86;100414.91;5029595;28;20489;-51
2022/08/27 01:07:30;;;;;;;29.10;16.70;;;;;;;23.04;39.18;100413.69;5016203;28;20053;-50
2022/08/27 01:09:59;;;;;;;29.08;17.80;;;;;;;22.95;39.56;100401.22;5012692;28;20050;-51
2022/08/27 01:12:27;;;;;;;34.80;17.63;;;;;;;22.94;39.40;100418.63;5030864;28;20045;-55
2022/08/27 01:14:54;;;;;;;34.90;17.35;;;;;;;22.94;38.89;100411.25;5032410;28;20068;-53
2022/08/27 01:17:20;;;;;;;34.03;15.88;;;;;;;22.86;39.74;100411.38;5029188;28;20468;-49
2022/08/27 01:19:51;;;;;;;34.78;17.38;;;;;;;22.66;39.92;100394.72;5032677;28;20033;-52
2022/08/27 01:22:39;;;;;;;28.42;16.88;;;;;;;22.85;39.62;100414.28;5032536;28;20037;-55
2022/08/27 01:25:11;;;;;;;35.00;18.00;;;;;;;22.83;39.28;100419.09;5025532;28;20026;-51
2022/08/27 01:27:39;;;;;;;36.28;17.00;;;;;;;22.89;38.61;100413.72;5013042;28;20128;-52
2022/08/27 01:30:07;;;;;;;36.67;17.50;;;;;;;22.72;38.61;100388.53;5012408;28;20096;-55
2022/08/27 01:32:34;;;;;;;33.28;16.63;;;;;;;22.82;39.46;100423.72;5031550;28;20033;-51
2022/08/27 01:35:03;;;;;;;34.80;17.00;;;;;;;22.80;39.14;100420.34;5032269;28;20037;-50
2022/08/27 01:37:29;;;;;;;30.98;17.13;;;;;;;22.78;39.32;100423.25;5029506;28;20107;-54
2022/08/27 01:39:56;;;;;;;31.00;17.35;;;;;;;22.80;39.04;100431.25;5012481;28;20394;-53
2022/08/27 01:42:29;;;;;;;30.85;17.65;;;;;;;22.84;38.79;100426.25;5013007;28;20037;-50
2022/08/27 01:45:05;;;;;;;40.92;17.30;;;;;;;22.92;38.67;100434.34;5026035;28;20057;-52
2022/08/27 01:47:30;;;;;;;;;;;;;;;23.13;37.53;100430.81;5032237;28;20026;-51
2022/08/27 01:49:56;;;;;;;;;;;;;;;23.20;37.34;100428.19;5024319;28;19917;-51
2022/08/27 01:52:24;;;;;;;31.50;17.15;;;;;;;22.92;38.35;100429.72;5029620;28;19917;-53
2022/08/27 01:54:51;;;;;;;34.10;17.88;;;;;;;22.90;38.60;100439.13;5030636;28;20108;-54
2022/08/27 01:57:19;;;;;;;36.10;17.77;;;;;;;22.88;39.07;100427.56;5022818;28;20030;-55
2022/08/27 01:59:45;;;;;;;34.40;17.50;;;;;;;22.80;39.06;100421.19;5032067;28;20374;-51
2022/08/27 02:02:13;;;;;;;38.20;17.92;;;;;;;22.87;38.73;100436.78;5032306;28;20039;-57
2022/08/27 02:04:39;;;;;;;35.42;17.63;;;;;;;22.88;38.88;100433.88;5013675;28;20352;-53
2022/08/27 02:07:05;;;;;;;39.08;17.90;;;;;;;22.88;39.06;100431.16;5011993;28;20132;-51
2022/08/27 02:09:32;;;;;;;30.08;17.55;;;;;;;22.85;39.20;100430.66;5013222;28;20598;-53
2022/08/27 02:11:59;;;;;;;29.17;17.23;;;;;;;22.73;40.24;100433.91;5031904;28;20112;-53
2022/08/27 02:14:25;;;;;;;28.77;17.08;;;;;;;22.67;40.29;100431.06;5031252;28;20099;-52
2022/08/27 02:16:50;;;;;;;29.25;16.63;;;;;;;22.58;40.64;100439.38;5026329;28;20025;-55
2022/08/27 02:19:17;;;;;;;33.20;18.30;;;;;;;22.51;41.09;100442.00;5012266;28;20494;-49
2022/08/27 02:21:42;;;;;;;34.92;18.50;;;;;;;22.37;40.58;100424.53;5012011;28;20417;-53
2022/08/27 02:24:08;;;;;;;26.45;16.48;;;;;;;22.44;40.67;100438.28;5026425;28;20034;-62
2022/08/27 02:26:34;;;;;;;34.40;17.27;;;;;;;22.49;40.79;100445.94;5011350;28;20448;-54
2022/08/27 02:28:59;;;;;;;34.15;17.80;;;;;;;22.47;40.83;100437.09;5010896;28;20593;-55
2022/08/27 02:31:25;;;;;;;26.35;16.77;;;;;;;22.41;41.08;100438.63;5011709;28;20030;-54
2022/08/27 02:33:51;;;;;;;28.17;17.33;;;;;;;22.43;40.82;100444.78;5011364;28;20156;-51
2022/08/27 02:36:16;;;;;;;33.70;17.98;;;;;;;22.43;41.15;100431.16;5027601;28;20033;-52
2022/08/27 02:38:43;;;;;;;38.67;18.17;;;;;;;22.42;41.89;100445.78;5031729;28;20056;-53
2022/08/27 02:41:08;;;;;;;35.25;17.55;;;;;;;22.39;41.09;100440.72;5029149;28;20045;-55
2022/08/27 02:43:34;;;;;;;36.65;18.75;;;;;;;22.41;41.07;100437.81;5030525;28;20927;-52
2022/08/27 02:46:00;;;;;;;36.95;18.83;;;;;;;22.44;41.66;100442.88;5030586;28;20048;-53
2022/08/27 02:48:26;;;;;;;34.88;19.30;;;;;;;22.50;41.31;100445.75;5012836;28;20073;-55
2022/08/27 02:50:51;;;;;;;39.75;18.73;;;;;;;22.53;41.20;100439.06;5011144;28;20157;-56
2022/08/27 02:53:17;;;;;;;37.05;18.95;;;;;;;22.66;41.42;100443.84;5012714;28;20018;-54
2022/08/27 02:55:43;;;;;;;36.80;19.30;;;;;;;22.79;41.14;100446.78;5011544;28;20478;-52
2022/08/27 02:58:09;;;;;;;43.17;20.70;;;;;;;22.85;40.59;100450.63;5010935;28;20038;-54
2022/08/27 03:00:35;;;;;;;40.13;19.98;;;;;;;22.89;40.90;100446.50;5021722;28;20949;-54
2022/08/27 03:03:01;;;;;;;44.05;22.52;;;;;;;23.02;40.46;100450.41;5030622;28;20466;-53
2022/08/27 03:05:27;;;;;;;36.83;20.60;;;;;;;23.00;41.03;100447.88;5028226;28;20076;-55
2022/08/27 03:07:52;;;;;;;37.90;20.40;;;;;;;23.08;40.64;100449.69;5010991;28;20097;-53
2022/08/27 03:10:19;;;;;;;35.67;19.95;;;;;;;23.11;40.70;100453.88;5011021;28;20382;-52
2022/08/27 03:12:45;;;;;;;38.10;20.58;;;;;;;23.13;40.68;100447.22;5011281;28;20045;-54
2022/08/27 03:15:15;;;;;;;39.22;21.08;;;;;;;23.25;40.67;100455.78;5026414;28;20516;-56
2022/08/27 03:20:25;;;;;;;45.38;21.60;;;;;;;23.37;40.29;100462.41;5020483;28;20489;-53
2022/08/27 03:22:51;;;;;;;40.55;20.15;;;;;;;23.39;41.08;100458.66;5011040;28;20041;-55
2022/08/27 03:25:17;;;;;;;40.58;20.67;;;;;;;23.42;41.12;100461.84;5013374;28;20030;-60
2022/08/27 03:27:43;;;;;;;34.65;21.30;;;;;;;23.53;40.65;100463.22;5018313;28;20034;-57
2022/08/27 03:30:12;;;;;;;37.25;20.90;;;;;;;23.67;40.65;100466.13;5010928;28;20117;-53
2022/08/27 03:32:38;;;;;;;43.08;23.65;;;;;;;23.78;39.70;100460.13;5010682;28;20044;-52
2022/08/27 03:35:05;;;;;;;40.08;23.48;;;;;;;24.03;39.14;100463.34;5024781;28;20037;-52
2022/08/27 03:37:30;;;;;;;45.88;22.48;;;;;;;24.54;39.17;100457.78;5030496;28;20095;-52
2022/08/27 03:39:56;;;;;;;34.63;22.13;;;;;;;25.35;36.61;100454.41;5026947;28;20026;-54
2022/08/27 03:42:21;;;;;;;39.33;23.35;;;;;;;26.18;35.41;100466.19;5014546;28;20036;-53
2022/08/27 03:44:47;;;;;;;37.65;22.35;;;;;;;26.92;34.40;100451.47;5015083;28;20481;-51
2022/08/27 03:47:13;;;;;;;42.92;24.77;;;;;;;27.80;32.21;100469.22;5015015;28;20054;-52
2022/08/27 03:49:39;;;;;;;43.78;24.75;;;;;;;28.34;31.34;100457.81;5014639;28;20030;-52
2022/08/27 03:52:05;;;;;;;46.08;23.65;;;;;;;29.11;30.25;100471.38;5014591;28;20051;-53
2022/08/27 03:54:33;;;;;;;41.28;24.83;;;;;;;29.86;28.87;100469.31;5016129;28;20096;-54
2022/08/27 03:56:59;;;;;;;40.30;24.38;;;;;;;30.39;28.03;100451.00;5014711;28;20474;-54
2022/08/27 03:59:24;;;;;;;43.40;25.42;;;;;;;30.98;27.18;100460.28;5015635;28;20048;-51
2022/08/27 04:01:49;;;;;;;41.85;26.40;;;;;;;31.45;25.92;100464.84;5014305;28;20033;-57
2022/08/27 04:04:15;;;;;;;44.63;25.67;;;;;;;31.78;25.71;100457.72;5015166;28;20038;-51
2022/08/27 04:06:41;;;;;;;47.33;25.10;;;;;;;32.16;24.77;100461.66;5017794;28;20497;-54
2022/08/27 04:09:06;;;;;;;41.88;26.30;;;;;;;32.63;24.36;100457.66;5033989;28;20470;-53
2022/08/27 04:11:35;;;;;;;42.00;26.95;;;;;;;33.27;23.91;100468.47;5033637;28;20049;-56
2022/08/27 04:14:04;;;;;;;42.33;26.20;;;;;;;33.73;22.81;100468.97;5034057;28;20091;-54
2022/08/27 04:16:32;;;;;;;47.42;27.88;;;;;;;34.01;22.51;100460.63;5015937;28;20509;-59
2022/08/27 04:18:58;;;;;;;45.45;26.83;;;;;;;34.49;21.78;100464.31;5022361;28;20022;-57
2022/08/27 04:21:23;;;;;;;44.00;26.48;;;;;;;34.81;21.22;100470.03;5022115;28;20022;-51
2022/08/27 04:23:48;;;;;;;48.47;27.20;;;;;;;35.29;20.74;100470.78;5022108;28;20045;-51
2022/08/27 04:26:15;;;;;;;38.65;27.63;;;;;;;35.76;20.42;100462.53;5023191;28;21209;-51
2022/08/27 04:28:41;;;;;;;42.25;27.85;;;;;;;36.26;19.92;100464.75;5021949;28;20041;-55
2022/08/27 04:31:07;;;;;;;52.08;29.88;;;;;;;36.67;19.50;100467.47;5021086;28;20026;-48
2022/08/27 04:33:33;;;;;;;49.88;30.15;;;;;;;36.85;19.17;100465.16;5022469;28;20037;-60
2022/08/27 04:36:05;;;;;;;47.35;29.52;;;;;;;37.43;18.65;100464.59;5022753;28;20023;-54
2022/08/27 04:38:32;;;;;;;48.03;30.02;;;;;;;37.71;18.02;100462.19;5021142;28;20030;-56
2022/08/27 04:43:41;;;;;;;47.15;31.10;;;;;;;38.39;17.29;100456.84;5023388;28;20121;-58
2022/08/27 04:46:07;;;;;;;44.42;28.77;;;;;;;38.51;17.31;100469.59;5021372;28;20112;-56
2022/08/27 04:48:33;;;;;;;44.58;29.42;;;;;;;38.91;16.68;100465.50;5021285;28;20033;-56
2022/08/27 04:50:59;;;;;;;48.10;29.73;;;;;;;39.38;16.15;100464.06;5021489;28;20033;-55
2022/08/27 04:53:25;;;;;;;43.97;30.40;;;;;;;39.82;16.04;100459.19;5015909;28;20032;-55
2022/08/27 04:55:53;;;;;;;48.92;30.30;;;;;;;40.16;15.92;100470.06;5011949;28;20398;-63
2022/08/27 04:58:21;;;;;;;52.53;31.83;;;;;;;40.52;15.78;100474.19;5019078;28;20029;-50
2022/08/27 05:00:49;;;;;;;50.95;33.10;;;;;;;40.92;14.92;100468.06;5033208;28;20034;-56
2022/08/27 05:03:17;;;;;;;49.72;33.28;;;;;;;41.27;14.45;100470.41;5023058;28;20052;-55
2022/08/27 05:05:43;;;;;;;57.55;32.70;;;;;;;41.49;14.20;100466.81;5022277;28;20053;-50
2022/08/27 05:08:13;;;;;;;49.03;32.60;;;;;;;41.71;13.97;100465.16;5020878;28;20044;-57
2022/08/27 05:10:43;;;;;;;51.03;32.85;;;;;;;41.82;13.75;100463.78;5021800;28;20091;-54
2022/08/27 05:13:10;;;;;;;52.45;34.83;;;;;;;41.93;13.79;100469.13;5022454;28;20080;-57
2022/08/27 05:15:37;;;;;;;56.30;36.53;;;;;;;41.96;13.63;100474.09;5019515;28;20033;-60
2022/08/27 05:18:04;;;;;;;65.30;38.75;;;;;;;42.27;13.39;100476.94;5019801;28;20981;-57
2022/08/27 05:20:30;;;;;;;44.80;38.63;;;;;;;42.79;12.63;100478.31;5030496;28;20037;-54
2022/08/27 05:22:56;;;;;;;54.65;39.25;;;;;;;43.01;12.38;100474.59;5032557;28;20357;-59
2022/08/27 05:25:23;;;;;;;55.72;40.15;;;;;;;43.12;12.59;100471.47;5031699;28;20466;-63
2022/08/27 05:27:49;;;;;;;58.13;42.33;;;;;;;43.34;12.61;100466.88;5032831;28;20025;-57
2022/08/27 05:30:14;;;;;;;56.13;41.55;;;;;;;43.70;12.20;100477.81;5015589;28;20040;-58
2022/08/27 05:32:40;;;;;;;53.92;41.95;;;;;;;43.44;11.99;100475.00;5012675;28;20030;-58
2022/08/27 05:35:06;;;;;;;59.08;44.55;;;;;;;43.38;12.34;100470.69;5024047;28;20041;-58
2022/08/27 05:37:32;;;;;;;58.72;43.17;;;;;;;43.23;12.34;100443.78;5031976;28;20029;-57
2022/08/27 05:40:03;;;;;;;53.80;43.83;;;;;;;43.91;11.76;100479.94;5026472;28;20109;-56
2022/08/27 05:42:30;;;;;;;68.25;47.90;;;;;;;44.79;11.08;100481.63;5016044;28;20032;-58
2022/08/27 05:44:56;;;;;;;61.35;48.42;;;;;;;45.57;10.73;100466.13;5030965;28;20385;-56
2022/08/27 05:47:22;;;;;;;56.85;48.33;;;;;;;46.03;10.25;100475.84;5024091;28;20040;-58
2022/08/27 05:49:52;;;;;;;64.63;49.67;;;;;;;46.63;9.88;100476.31;5032721;28;20034;-58
2022/08/27 05:52:18;;;;;;;59.05;48.75;;;;;;;46.42;9.52;100474.38;5031118;28;20125;-60
2022/08/27 05:54:43;;;;;;;60.28;49.67;;;;;;;46.61;9.70;100473.00;5031179;28;20124;-58
2022/08/27 05:57:09;;;;;;;67.20;48.25;;;;;;;46.86;9.45;100472.97;5031300;28;20099;-56
2022/08/27 06:02:19;;;;;;;57.92;46.47;;;;;;;48.36;8.79;100470.38;5027122;28;20112;-57
2022/08/27 06:04:45;;;;;;;49.88;41.63;;;;;;;49.44;7.29;100469.22;5031514;28;20122;-57
2022/08/27 06:07:11;;;;;;;62.92;47.03;;;;;;;50.37;7.18;100455.09;5031761;28;20033;-58
2022/08/27 06:09:38;;;;;;;57.65;46.47;;;;;;;51.02;6.92;100480.13;5028663;28;20033;-59
2022/08/27 06:12:04;;;;;;;59.28;49.17;;;;;;;50.49;6.92;100464.66;5011992;28;20034;-59
2022/08/27 06:14:29;;;;;;;51.55;45.20;;;;;;;49.95;7.55;100464.53;5011634;28;20030;-56
2022/08/27 06:16:55;;;;;;;55.38;41.85;;;;;;;49.70;7.39;100464.88;5012752;28;20034;-59
2022/08/27 06:19:21;;;;;;;49.70;36.90;;;;;;;49.55;6.99;100473.13;5012428;28;20080;-58
2022/08/27 06:21:47;;;;;;;50.13;37.28;;;;;;;49.90;6.76;100456.28;5012208;28;20064;-59
2022/08/27 06:24:12;;;;;;;46.45;34.90;;;;;;;50.43;6.56;100457.63;5027109;28;20076;-58
2022/08/27 06:26:43;;;;;;;46.20;35.10;;;;;;;50.13;6.56;100447.78;5031073;28;20116;-57
2022/08/27 06:29:10;;;;;;;41.67;32.42;;;;;;;50.03;6.55;100465.47;5021769;28;20160;-58
2022/08/27 06:31:36;;;;;;;44.15;35.10;;;;;;;50.35;6.00;100460.34;5031185;28;20037;-59
2022/08/27 06:34:05;;;;;;;41.83;34.40;;;;;;;51.02;6.00;100469.53;5030976;28;20093;-57
2022/08/27 06:36:31;;;;;;;46.20;36.97;;;;;;;50.97;5.85;100456.44;5020323;28;20398;-59
2022/08/27 06:38:58;;;;;;;40.63;35.47;;;;;;;51.09;6.02;100461.06;5011964;28;20033;-61
2022/08/27 06:41:25;;;;;;;44.75;34.92;;;;;;;51.51;5.69;100466.91;5011631;28;20496;-59
2022/08/27 06:43:52;;;;;;;42.45;35.50;;;;;;;51.84;5.61;100456.66;5024238;28;20052;-56
2022/08/27 06:46:20;;;;;;;35.65;31.52;;;;;;;51.81;5.41;100458.25;5030942;28;20041;-58
2022/08/27 06:48:48;;;;;;;37.72;32.40;;;;;;;51.78;5.41;100456.19;5030648;28;20417;-58
2022/08/27 06:51:19;;;;;;;43.92;35.33;;;;;;;51.78;5.38;100456.19;5027304;28;20113;-60
2022/08/27 06:53:46;;;;;;;45.53;36.30;;;;;;;50.95;5.88;100433.22;5010711;28;20390;-59
2022/08/27 06:56:13;;;;;;;42.92;36.75;;;;;;;50.66;5.81;100463.28;5011239;28;20057;-56
2022/08/27 06:58:39;;;;;;;54.97;39.20;;;;;;;50.34;6.22;100453.00;5014059;28;20104;-58
2022/08/27 07:01:21;;;;;;;54.80;42.17;;;;;;;50.63;6.71;100459.19;5030611;28;20389;-57
2022/08/27 07:03:47;;;;;;;49.30;40.30;;;;;;;49.53;6.71;100432.03;5028229;28;20041;-58
2022/08/27 07:06:15;;;;;;;52.70;44.90;;;;;;;49.22;7.09;100451.72;5010888;28;20486;-59
2022/08/27 07:08:41;;;;;;;52.78;43.20;;;;;;;49.15;7.45;100448.72;5012608;28;20158;-59
2022/08/27 07:11:11;;;;;;;57.35;44.67;;;;;;;49.39;7.30;100438.22;5020823;28;20083;-57
2022/08/27 07:13:38;;;;;;;56.55;44.45;;;;;;;49.67;7.00;100451.38;5021501;28;20036;-58
2022/08/27 07:16:09;;;;;;;54.72;45.40;;;;;;;50.29;6.60;100456.19;5030421;28;20052;-59
2022/08/27 07:18:35;;;;;;;54.40;45.50;;;;;;;49.83;6.88;100448.44;5027681;28;20041;-57
2022/08/27 07:21:02;;;;;;;56.53;42.75;;;;;;;49.53;6.75;100435.69;5010942;28;20034;-60
2022/08/27 07:23:29;;;;;;;51.05;42.83;;;;;;;49.38;6.88;100440.25;5010906;28;20481;-63
2022/08/27 07:25:55;;;;;;;55.47;44.55;;;;;;;49.55;6.71;100444.69;5024504;28;20032;-59
2022/08/27 07:28:20;;;;;;;57.45;45.53;;;;;;;49.72;7.06;100442.56;5031130;28;20030;-59
2022/08/27 07:30:46;;;;;;;53.20;45.88;;;;;;;49.72;6.72;100428.34;5026022;28;20463;-59
2022/08/27 07:33:11;;;;;;;62.60;43.97;;;;;;;50.25;6.62;100443.94;5010647;28;20041;-58
2022/08/27 07:35:37;;;;;;;56.20;45.78;;;;;;;51.00;6.18;100436.91;5010944;28;20033;-58
2022/08/27 07:38:02;;;;;;;55.47;45.72;;;;;;;51.80;6.16;100435.81;5027622;28;20103;-59
2022/08/27 07:40:28;;;;;;;53.90;46.35;;;;;;;52.26;6.01;100431.75;5019919;28;20417;-59
2022/08/27 07:45:47;;;;;;;58.72;45.78;;;;;;;52.54;5.32;100433.16;5013673;28;20125;-59
2022/08/27 07:48:15;;;;;;;54.67;46.03;;;;;;;51.62;6.27;100444.19;5030038;28;20364;-59
2022/08/27 07:50:41;;;;;;;52.28;46.58;;;;;;;50.98;6.42;100440.97;5029942;28;20034;-57
2022/08/27 07:53:07;;;;;;;59.45;45.72;;;;;;;50.44;6.66;100447.88;5023045;28;20079;-59
2022/08/27 07:55:37;;;;;;;57.80;47.92;;;;;;;49.92;6.79;100448.19;5010968;28;20505;-59
2022/08/27 07:58:04;;;;;;;51.55;45.42;;;;;;;49.60;7.00;100437.88;5010732;28;20382;-61
2022/08/27 08:00:30;;;;;;;58.72;45.40;;;;;;;49.10;6.69;100434.75;5012054;28;20397;-59
2022/08/27 08:02:56;;;;;;;48.60;43.33;;;;;;;48.53;7.19;100433.09;5030412;28;20037;-58
2022/08/27 08:05:21;;;;;;;50.65;40.88;;;;;;;48.14;6.99;100432.94;5030756;28;20063;-58
2022/08/27 08:07:47;;;;;;;47.63;38.97;;;;;;;47.33;7.92;100422.59;5025284;28;20144;-58
2022/08/27 08:10:12;;;;;;;53.28;46.03;;;;;;;46.15;8.86;100434.28;5010348;28;20413;-60
2022/08/27 08:12:39;;;;;;;56.97;46.60;;;;;;;44.40;9.63;100430.84;5010599;28;20037;-51
2022/08/27 08:15:08;;;;;;;52.05;43.05;;;;;;;42.46;10.63;100417.66;5024955;28;20049;-58
2022/08/27 08:17:33;;;;;;;52.55;44.63;;;;;;;41.29;11.63;100428.78;5030184;28;20026;-59
2022/08/27 08:19:59;;;;;;;56.75;45.70;;;;;;;40.40;12.59;100421.41;5026842;28;20029;-58
2022/08/27 08:22:26;;;;;;;58.45;47.03;;;;;;;39.59;13.40;100425.34;5029762;28;20041;-60
2022/08/27 08:24:52;;;;;;;57.90;47.38;;;;;;;39.01;13.41;100421.72;5030124;28;20539;-60
2022/08/27 08:27:19;;;;;;;57.85;43.58;;;;;;;38.41;13.84;100423.81;5024060;28;20021;-57
2022/08/27 08:29:48;;;;;;;48.28;39.42;;;;;;;37.57;14.51;100422.09;5013652;28;20065;-55
2022/08/27 08:32:14;;;;;;;56.47;39.25;;;;;;;37.09;14.85;100417.94;5013644;28;20026;-60
2022/08/27 08:34:40;;;;;;;52.88;34.78;;;;;;;36.79;14.79;100411.38;5033607;28;20124;-59
2022/08/27 08:37:06;;;;;;;38.38;28.92;;;;;;;36.75;14.26;100416.66;5033201;28;20125;-59
2022/08/27 08:39:32;;;;;;;46.22;30.15;;;;;;;36.64;14.11;100409.47;5030864;28;20046;-56
2022/08/27 08:42:00;;;;;;;39.58;27.80;;;;;;;36.54;14.35;100409.50;5013566;28;20521;-56
2022/08/27 08:44:40;;;;;;;35.05;24.60;;;;;;;36.67;14.36;100411.69;5012894;28;20026;-57
2022/08/27 08:47:18;;;;;;;37.80;24.55;;;;;;;36.80;13.80;100409.41;5028275;28;20029;-58
2022/08/27 08:49:55;;;;;;;30.83;22.73;;;;;;;36.74;13.86;100394.63;5031741;28;20102;-59
2022/08/27 08:52:37;;;;;;;40.90;28.23;;;;;;;36.63;13.98;100402.22;5031921;28;20038;-58
2022/08/27 08:55:15;;;;;;;39.72;30.02;;;;;;;36.40;14.85;100401.69;5030987;28;20045;-57
2022/08/27 08:58:22;;;;;;;41.50;28.38;;;;;;;36.52;14.26;100395.03;5032216;28;20037;-59
2022/08/27 09:00:55;;;;;;;33.83;25.35;;;;;;;36.28;14.18;100395.63;5018560;28;20140;-61
2022/08/27 09:03:22;;;;;;;31.50;24.00;;;;;;;36.14;14.76;100401.78;5012919;28;20117;-59
2022/08/27 09:05:55;;;;;;;37.60;27.42;;;;;;;36.12;14.16;100398.44;5016977;28;20044;-59
2022/08/27 09:08:36;;;;;;;30.25;24.90;;;;;;;36.16;14.24;100393.97;5031480;28;20477;-58
2022/08/27 09:11:20;;;;;;;36.35;24.88;;;;;;;36.29;14.14;100386.97;5032248;28;20029;-57
2022/08/27 09:13:54;;;;;;;35.70;28.08;;;;;;;36.37;14.33;100393.91;5017026;28;20052;-58
2022/08/27 09:16:20;;;;;;;33.33;26.35;;;;;;;36.40;14.09;100373.81;5012668;28;20036;-60
2022/08/27 09:18:46;;;;;;;37.70;25.58;;;;;;;36.54;14.25;100376.91;5011887;28;20026;-60
2022/08/27 09:21:32;;;;;;;33.08;26.13;;;;;;;36.77;14.28;100397.69;5009710;28;20649;-60
2022/08/27 09:24:01;;;;;;;24.48;20.17;;;;;;;36.57;13.51;100375.47;5012782;28;20042;-57
2022/08/27 09:26:30;;;;;;;23.55;21.05;;;;;;;36.53;13.76;100385.53;5013748;28;20136;-60
2022/08/27 09:29:18;;;;;;;34.03;23.48;;;;;;;36.39;14.28;100379.69;5031091;28;20044;-59
2022/08/27 09:31:47;;;;;;;34.78;23.48;;;;;;;36.25;14.21;100374.72;5032540;28;20450;-58
2022/08/27 09:34:13;;;;;;;35.75;23.13;;;;;;;36.17;14.22;100372.53;5012580;28;20060;-57
2022/08/27 09:36:50;;;;;;;24.75;19.35;;;;;;;36.25;13.85;100379.47;5011943;28;20107;-59
2022/08/27 09:39:15;;;;;;;20.00;16.23;;;;;;;35.87;14.04;100369.47;5013357;28;20028;-59
2022/08/27 09:41:47;;;;;;;24.38;18.75;;;;;;;35.60;13.97;100378.97;5012838;28;20529;-56
2022/08/27 09:44:18;;;;;;;21.20;16.52;;;;;;;35.41;14.53;100378.66;5012207;28;20029;-59
2022/08/27 09:46:52;;;;;;;18.88;14.40;;;;;;;35.20;14.43;100378.66;5011808;28;20041;-58
2022/08/27 09:49:18;;;;;;;19.40;12.18;;;;;;;35.10;14.72;100366.66;5012567;28;20041;-57
2022/08/27 09:51:46;;;;;;;18.38;12.48;;;;;;;35.10;15.03;100372.22;5024389;28;20100;-57
2022/08/27 09:54:29;;;;;;;17.45;13.10;;;;;;;35.23;14.56;100376.41;5031824;28;20033;-59
2022/08/27 09:56:56;;;;;;;17.00;14.00;;;;;;;35.23;15.05;100360.56;5029820;28;20075;-60
2022/08/27 09:59:23;;;;;;;23.35;16.08;;;;;;;35.39;14.71;100369.75;5014510;28;20038;-57
2022/08/27 10:01:53;;;;;;;19.40;14.82;;;;;;;35.57;14.61;100365.63;5012308;28;20049;-59
2022/08/27 10:04:47;;;;;;;16.38;14.68;;;;;;;35.86;14.57;100372.56;5026121;28;20426;-58
2022/08/27 10:07:32;;;;;;;19.98;14.40;;;;;;;35.97;14.14;100368.63;5031204;28;20132;-57
2022/08/27 10:10:05;;;;;;;21.10;14.88;;;;;;;35.91;15.00;100378.94;5032044;28;20044;-59
2022/08/27 10:12:41;;;;;;;16.90;15.07;;;;;;;35.87;14.82;100379.81;5020850;28;20041;-59
2022/08/27 10:15:09;;;;;;;18.58;14.27;;;;;;;35.56;14.69;100366.72;5010300;28;20053;-59
2022/08/27 10:18:10;;;;;;;16.88;14.13;;;;;;;35.67;14.60;100383.41;5011897;28;20053;-59
2022/08/27 10:20:42;;;;;;;19.35;14.73;;;;;;;35.49;15.01;100357.78;5012266;28;20508;-58
2022/08/27 10:23:07;;;;;;;22.63;16.38;;;;;;;35.27;15.05;100366.41;5027044;28;20030;-58
2022/08/27 10:25:57;;;;;;;22.15;16.05;;;;;;;35.28;15.08;100377.28;5031178;28;20060;-59
2022/08/27 10:28:43;;;;;;;21.60;16.75;;;;;;;35.13;15.23;100363.31;5021703;28;20489;-58
2022/08/27 10:31:25;;;;;;;21.58;17.10;;;;;;;34.84;15.52;100350.69;5012213;28;20040;-59
2022/08/27 10:34:33;;;;;;;25.40;17.50;;;;;;;34.76;15.65;100357.66;5018552;28;20060;-57
2022/08/27 10:37:21;;;;;;;25.10;17.10;;;;;;;34.86;15.53;100372.69;5013416;28;20045;-58
2022/08/27 10:39:56;;;;;;;23.95;17.67;;;;;;;34.94;15.74;100363.81;5010893;28;20037;-60
2022/08/27 10:42:41;;;;;;;20.85;17.85;;;;;;;34.97;15.68;100352.16;5011278;28;20084;-58
2022/08/27 10:45:16;;;;;;;20.67;15.23;;;;;;;35.09;15.29;100356.63;5025983;28;20037;-58
2022/08/27 10:48:20;;;;;;;22.17;17.23;;;;;;;35.22;15.60;100364.47;5030456;28;20094;-60
2022/08/27 10:50:56;;;;;;;18.35;16.25;;;;;;;35.08;15.42;100352.19;5030745;28;20029;-56
2022/08/27 10:53:25;;;;;;;18.17;15.00;;;;;;;34.90;15.60;100351.56;5013015;28;20026;-58
2022/08/27 10:56:15;;;;;;;16.50;14.00;;;;;;;35.02;15.26;100360.53;5011170;28;20065;-58
2022/08/27 10:58:54;;;;;;;17.80;15.10;;;;;;;35.13;15.41;100350.25;5022747;28;20056;-62
2022/08/27 11:01:42;;;;;;;16.63;13.98;;;;;;;35.30;15.54;100349.13;5030886;28;20493;-59
2022/08/27 11:04:24;;;;;;;16.95;14.52;;;;;;;35.40;15.32;100354.72;5017236;28;20211;-60
2022/08/27 11:07:04;;;;;;;19.65;14.50;;;;;;;35.34;15.33;100333.59;5023018;28;20114;-60
2022/08/27 11:09:50;;;;;;;17.52;15.07;;;;;;;35.26;15.45;100348.88;5030836;28;20029;-55
2022/08/27 11:12:21;;;;;;;24.65;15.77;;;;;;;35.18;15.54;100338.28;5030238;28;20095;-58
2022/08/27 11:15:18;;;;;;;17.13;15.35;;;;;;;35.29;14.73;100337.19;5010942;28;20113;-59
2022/08/27 11:18:23;;;;;;;20.25;15.82;;;;;;;35.41;15.39;100338.84;5010462;28;20093;-59
2022/08/27 11:21:00;;;;;;;17.17;15.43;;;;;;;35.31;15.34;100339.69;5015033;28;20113;-57
2022/08/27 11:23:28;;;;;;;17.90;15.50;;;;;;;35.21;15.41;100343.31;5029998;28;20041;-57
2022/08/27 11:25:57;;;;;;;15.57;13.98;;;;;;;35.15;15.04;100331.34;5030308;28;20095;-59
2022/08/27 11:28:40;;;;;;;17.08;14.57;;;;;;;35.24;15.22;100328.00;5029324;28;20022;-57
2022/08/27 11:31:23;;;;;;;17.60;14.35;;;;;;;35.22;14.85;100328.28;5010465;28;20116;-58
2022/08/27 11:34:20;;;;;;;17.25;13.95;;;;;;;35.23;15.04;100332.75;5010448;28;20469;-60
2022/08/27 11:37:23;;;;;;;18.60;16.02;;;;;;;35.29;15.30;100333.56;5015002;28;20025;-56